METAR Data
IDs: Format: Raw Decoded Include TAF

Data at: 0828 UTC 03 Aug 2021

KSAC 030753Z AUTO 16003KT 10SM CLR 18/10 A2996 RMK AO2 SLP146 T01780100 403500150
KSAC 030653Z AUTO 22007KT 10SM CLR 19/10 A2996 RMK AO2 SLP144 T01890100
KSAC 030553Z AUTO 21006KT 10SM CLR 20/11 A2996 RMK AO2 SLP144 T02000111 10350 20200 50001
KSAC 030453Z AUTO 21007KT 10SM CLR 22/11 A2996 RMK AO2 SLP145 T02170111
KSAC 030353Z 20005KT 10SM CLR 24/11 A2996 RMK AO2 SLP143 T02440111
KSAC 030253Z 22007KT 10SM CLR 28/09 A2995 RMK AO2 SLP142 T02830089 55006
KSAC 030153Z 19005KT 10SM CLR 32/06 A2995 RMK AO2 SLP142 T03170056
KSAC 030053Z 22006KT 10SM CLR 34/M02 A2996 RMK AO2 SLP145 T03441017
KSAC 022353Z 21004KT 10SM CLR 35/M02 A2997 RMK AO2 SLP149 T03501017 10350 20228 56023
KSAC 022253Z 10SM CLR 34/01 A2999 RMK AO2 SLP155 T03390011
KSAC 022153Z 23007KT 10SM CLR 32/03 A3001 RMK AO2 SLP162 T03220028
KSAC 022053Z 25010KT 10SM CLR 31/03 A3004 RMK AO2 SLP171 T03110033 58014
KSAC 021953Z 22010KT 180V240 10SM CLR 28/07 A3005 RMK AO2 SLP177 T02830072
KSAC 021853Z 21008KT 10SM CLR 26/10 A3007 RMK AO2 SLP181 T02560100
KSAC 021753Z 18006KT 10SM CLR 23/11 A3008 RMK AO2 SLP185 T02280111 10228 20150 50001
KSAC 021653Z 19010KT 10SM CLR 20/11 A3008 RMK AO2 SLP187 T02000111
KSAC 021553Z 18007KT 10SM CLR 18/11 A3009 RMK AO2 SLP187 T01830111
KSAC 021453Z 17009KT 10SM CLR 17/11 A3008 RMK AO2 SLP184 T01670106 53016
KSAC 021353Z 19007KT 10SM CLR 16/11 A3006 RMK AO2 SLP180 T01560106
KSAC 021253Z AUTO 18008KT 10SM CLR 16/11 A3004 RMK AO2 SLP172 T01560106
KSAC 021153Z AUTO 18008KT 10SM CLR 16/11 A3003 RMK AO2 SLP168 T01560111 10189 20156 53003
KSAC 021053Z AUTO 17006KT 10SM CLR 16/11 A3003 RMK AO2 SLP167 T01610111
KSAC 020953Z AUTO 18007KT 10SM CLR 17/11 A3002 RMK AO2 SLP164 T01670106
KSAC 020853Z AUTO 18007KT 10SM CLR 17/11 A3002 RMK AO2 SLP165 T01720106 51007
KSAC 020753Z AUTO 19006KT 10SM CLR 18/11 A3001 RMK AO2 SLP163 T01780106 403440156
KSAC 020653Z AUTO 19007KT 10SM CLR 18/11 A3001 RMK AO2 SLP161 T01780111
KSAC 020553Z AUTO 20009G16KT 10SM CLR 19/11 A3000 RMK AO2 SLP158 T01890111 10328 20189 51019
KSAC 020453Z AUTO 19008G17KT 10SM CLR 20/12 A2999 RMK AO2 SLP155 T02000117
KSAC 020353Z 21009KT 10SM CLR 21/12 A2997 RMK AO2 SLP147 T02110122
KSAC 020253Z 20009KT 10SM CLR 24/12 A2994 RMK AO2 SLP139 T02440122 53005
KSAC 020153Z 22009G17KT 10SM CLR 29/12 A2993 RMK AO2 SLP135 T02890117
KSAC 020053Z 20011G17KT 10SM CLR 32/08 A2993 RMK AO2 SLP135 T03220083
KSAC 012353Z 22013G19KT 10SM CLR 33/08 A2993 RMK AO2 SLP134 T03280078 10344 20244 56017
KSAC 012253Z 24010KT 10SM CLR 34/09 A2994 RMK AO2 SLP138 T03390094
KSAC 012153Z 20007KT 10SM CLR 32/11 A2996 RMK AO2 SLP145 T03220111
KSAC 012053Z 21008KT 10SM CLR 31/13 A2998 RMK AO2 SLP151 T03110128 58013